Time;durP1;ratioP1;P1;durP2;ratioP2;P2;SDS_P1;SDS_P2;PMS_P1;PMS_P2;Temp;Humidity;BMP_temperature;BMP_pressure;BME280_temperature;BME280_humidity;BME280_pressure;Samples;Min_cycle;Max_cycle;Signal;HPM_P1;HPM_P2
2021/11/29 00:01:38;;;;;;;;;2.00;2.00;;;;;21.74;31.18;100148.31;5058882;28;45438;-55
2021/11/29 00:04:04;;;;;;;;;3.00;2.00;;;;;21.74;30.93;100148.31;5078395;28;45405;-55
2021/11/29 00:06:30;;;;;;;;;3.00;2.00;;;;;21.73;31.42;100157.16;5078743;27;45343;-55
2021/11/29 00:08:55;;;;;;;;;2.25;2.25;;;;;21.70;31.36;100152.97;5078381;28;45427;-55
2021/11/29 00:11:21;;;;;;;;;4.25;2.00;;;;;21.70;31.19;100146.84;5078354;28;45445;-55
2021/11/29 00:13:46;;;;;;;;;2.75;2.75;;;;;21.68;31.61;100146.09;5060433;27;45378;-55
2021/11/29 00:16:12;;;;;;;;;3.75;2.50;;;;;21.67;31.38;100144.41;5078648;27;45525;-54
2021/11/29 00:18:38;;;;;;;;;4.00;2.25;;;;;21.66;31.47;100150.66;5060003;28;47279;-57
2021/11/29 00:21:04;;;;;;;;;3.50;3.00;;;;;21.66;31.12;100153.28;5060055;28;45294;-51
2021/11/29 00:23:30;;;;;;;;;3.75;3.00;;;;;21.65;31.17;100151.59;5078425;28;45408;-56
2021/11/29 00:25:55;;;;;;;;;3.75;3.00;;;;;21.61;31.01;100161.50;5077560;27;45616;-50
2021/11/29 00:28:21;;;;;;;;;2.50;2.50;;;;;21.60;31.26;100165.13;5077998;28;46088;-54
2021/11/29 00:30:46;;;;;;;;;4.00;3.00;;;;;21.58;31.26;100159.91;5078553;27;45338;-53
2021/11/29 00:33:13;;;;;;;;;3.00;3.00;;;;;21.55;30.97;100162.75;5060060;28;45471;-49
2021/11/29 00:35:39;;;;;;;;;2.25;2.25;;;;;21.57;30.91;100173.22;5078404;28;45557;-49
2021/11/29 00:38:06;;;;;;;;;2.50;2.00;;;;;21.53;31.48;100158.53;5076516;28;48139;-52
2021/11/29 00:40:32;;;;;;;;;3.00;3.00;;;;;21.52;30.98;100170.91;5077701;28;45605;-52
2021/11/29 00:42:58;;;;;;;;;2.25;2.25;;;;;21.51;31.24;100173.63;5078017;27;45462;-50
2021/11/29 00:45:24;;;;;;;;;7.25;2.25;;;;;21.49;31.15;100165.00;5078244;27;45665;-50
2021/11/29 00:47:49;;;;;;;;;2.00;2.00;;;;;21.49;31.02;100160.56;5077972;28;46643;-46
2021/11/29 00:50:15;;;;;;;;;4.00;4.00;;;;;21.47;31.19;100170.34;5076721;27;45267;-45
2021/11/29 00:52:42;;;;;;;;;4.00;4.00;;;;;21.46;30.99;100176.59;5077788;27;45304;-48
2021/11/29 00:55:09;;;;;;;;;2.75;2.75;;;;;21.42;31.18;100175.97;5077874;27;45316;-46
2021/11/29 00:57:34;;;;;;;;;3.50;2.25;;;;;21.40;31.11;100183.13;5077405;27;45435;-53
2021/11/29 00:59:59;;;;;;;;;3.00;3.00;;;;;21.41;31.07;100195.34;5077561;27;45455;-53
2021/11/29 01:02:25;;;;;;;;;5.00;4.25;;;;;21.39;31.01;100191.97;5077773;27;45898;-49
2021/11/29 01:04:50;;;;;;;;;4.25;3.75;;;;;21.38;31.08;100200.00;5077816;28;45450;-46
2021/11/29 01:07:16;;;;;;;;;2.00;2.00;;;;;21.36;30.88;100197.47;5077584;27;46881;-47
2021/11/29 01:09:42;;;;;;;;;4.00;3.00;;;;;21.33;30.92;100194.22;5077497;27;45420;-52
2021/11/29 01:12:08;;;;;;;;;3.50;3.50;;;;;21.32;31.41;100196.00;5077465;28;45257;-48
2021/11/29 01:14:34;;;;;;;;;4.00;2.00;;;;;21.30;31.15;100206.66;5077618;27;45549;-51
2021/11/29 01:16:59;;;;;;;;;3.25;3.25;;;;;21.30;31.28;100214.56;5077188;28;45588;-48
2021/11/29 01:19:25;;;;;;;;;2.25;2.25;;;;;21.27;31.23;100209.50;5077218;28;45321;-49
2021/11/29 01:21:51;;;;;;;;;5.00;3.00;;;;;21.26;31.28;100217.53;5077327;27;45444;-46
2021/11/29 01:24:16;;;;;;;;;4.50;3.00;;;;;21.23;31.11;100208.00;5077891;27;45532;-46
2021/11/29 01:26:41;;;;;;;;;5.25;3.25;;;;;21.18;31.48;100210.13;5076954;27;45284;-47
2021/11/29 01:29:07;;;;;;;;;3.75;3.75;;;;;21.17;31.33;100211.91;5077053;27;45525;-47
2021/11/29 01:31:32;;;;;;;;;4.25;3.75;;;;;21.20;31.40;100213.50;5077312;28;45329;-46
2021/11/29 01:33:58;;;;;;;;;1.25;1.00;;;;;21.18;31.10;100215.41;5077312;27;45331;-46
2021/11/29 01:36:23;;;;;;;;;4.75;4.00;;;;;21.16;31.09;100225.19;5077034;27;45358;-46
2021/11/29 01:38:49;;;;;;;;;4.50;2.25;;;;;21.14;31.44;100220.03;5077292;27;45368;-47
2021/11/29 01:41:16;;;;;;;;;4.00;3.00;;;;;21.13;31.31;100226.25;5077063;28;45329;-46
2021/11/29 01:43:43;;;;;;;;;4.50;3.75;;;;;21.13;31.35;100230.66;5077328;27;45339;-47
2021/11/29 01:46:09;;;;;;;;;4.00;4.00;;;;;21.10;31.49;100233.53;5076848;27;45561;-47
2021/11/29 01:48:34;;;;;;;;;3.00;3.00;;;;;21.09;31.14;100239.75;5076892;27;45192;-50
2021/11/29 01:51:00;;;;;;;;;4.25;4.25;;;;;21.08;31.56;100236.25;5076935;28;45671;-50
2021/11/29 01:53:28;;;;;;;;;2.75;2.75;;;;;21.08;31.11;100240.69;5058743;28;45563;-51
2021/11/29 01:55:58;;;;;;;;;4.00;3.00;;;;;21.02;31.00;100236.66;5076597;27;46636;-50
2021/11/29 01:58:24;;;;;;;;;3.50;3.00;;;;;21.05;30.77;100247.00;5076634;28;45823;-50
2021/11/29 02:00:55;;;;;;;;;2.00;2.00;;;;;21.03;31.39;100251.53;5076592;28;45197;-47
2021/11/29 02:03:24;;;;;;;;;4.00;4.00;;;;;21.02;31.19;100247.22;5077337;28;45437;-47
2021/11/29 02:05:50;;;;;;;;;3.75;2.50;;;;;21.01;31.40;100256.88;5075893;28;45250;-53
2021/11/29 02:08:16;;;;;;;;;4.00;3.00;;;;;20.99;31.33;100253.53;5076659;27;45288;-45
2021/11/29 02:10:41;;;;;;;;;7.00;3.00;;;;;20.99;31.17;100252.66;5076822;28;45654;-47
2021/11/29 02:13:07;;;;;;;;;3.75;3.75;;;;;20.98;31.36;100253.63;5076743;28;45386;-49
2021/11/29 02:15:33;;;;;;;;;3.50;3.00;;;;;20.96;31.54;100251.09;5076474;27;46428;-48
2021/11/29 02:17:58;;;;;;;;;3.00;3.00;;;;;20.96;31.12;100255.50;5076307;28;45682;-56
2021/11/29 02:20:28;;;;;;;;;3.25;3.25;;;;;20.97;31.78;100255.41;5076974;27;45612;-49
2021/11/29 02:22:54;;;;;;;;;4.00;4.00;;;;;20.99;31.21;100256.16;5077000;28;45850;-48
2021/11/29 02:25:20;;;;;;;;;6.50;5.00;;;;;21.03;31.86;100253.31;5076782;27;46293;-54
2021/11/29 02:27:47;;;;;;;;;4.75;3.75;;;;;21.05;31.71;100261.97;5076342;28;45326;-54
2021/11/29 02:30:13;;;;;;;;;4.25;3.00;;;;;21.10;31.67;100267.78;5076550;28;45271;-45
2021/11/29 02:32:39;;;;;;;;;4.00;3.00;;;;;21.12;31.32;100266.72;5076637;28;45632;-54
2021/11/29 02:35:05;;;;;;;;;3.00;3.00;;;;;21.20;31.48;100268.00;5076226;28;45472;-51
2021/11/29 02:37:31;;;;;;;;;4.75;4.00;;;;;21.23;31.67;100276.53;5074871;27;45949;-47
2021/11/29 02:39:57;;;;;;;;;5.50;4.75;;;;;21.29;31.24;100270.00;5076383;27;45422;-45
2021/11/29 02:42:23;;;;;;;;;4.75;4.00;;;;;21.30;31.28;100267.28;5058543;28;45266;-46
2021/11/29 02:44:48;;;;;;;;;3.25;3.25;;;;;21.37;31.23;100274.75;5076196;28;46551;-46
2021/11/29 02:47:14;;;;;;;;;4.00;4.00;;;;;21.37;31.16;100262.44;5076107;28;45274;-46
2021/11/29 02:49:39;;;;;;;;;4.75;3.00;;;;;21.44;31.47;100273.41;5076301;28;45370;-52
2021/11/29 02:52:11;;;;;;;;;3.00;3.00;;;;;21.44;31.12;100268.13;5076385;27;45203;-47
2021/11/29 02:54:43;;;;;;;;;4.00;4.00;;;;;21.50;31.05;100277.44;5075956;28;46402;-49
2021/11/29 02:57:16;;;;;;;;;3.00;3.00;;;;;21.52;31.74;100279.00;5075852;27;45329;-48
2021/11/29 02:59:41;;;;;;;;;1.50;1.50;;;;;21.55;31.39;100281.41;5076095;28;45185;-47
2021/11/29 03:02:11;;;;;;;;;1.25;1.25;;;;;21.59;31.23;100282.09;5076101;27;45406;-51
2021/11/29 03:04:37;;;;;;;;;3.00;3.00;;;;;21.60;31.47;100283.78;5075958;28;46451;-50
2021/11/29 03:07:04;;;;;;;;;3.00;3.00;;;;;21.62;31.27;100284.50;5075713;28;45275;-46
2021/11/29 03:09:30;;;;;;;;;5.25;4.25;;;;;21.61;31.07;100288.94;5075978;28;45248;-50
2021/11/29 03:11:56;;;;;;;;;4.00;2.25;;;;;21.67;31.23;100289.44;5076466;28;45525;-47
2021/11/29 03:14:22;;;;;;;;;2.00;2.00;;;;;21.69;31.48;100306.03;5079437;28;45425;-46
2021/11/29 03:16:50;;;;;;;;;3.75;3.25;;;;;21.69;30.87;100303.38;5079343;28;45330;-55
2021/11/29 03:19:15;;;;;;;;;5.75;3.00;;;;;21.68;31.22;100312.25;5079282;27;45368;-53
2021/11/29 03:21:41;;;;;;;;;2.50;2.25;;;;;21.67;31.08;100311.41;5079516;27;45667;-57
2021/11/29 03:24:09;;;;;;;;;2.00;2.00;;;;;21.66;31.03;100314.16;5079269;28;46238;-49
2021/11/29 03:26:36;;;;;;;;;3.00;3.00;;;;;21.68;31.42;100314.88;5078979;28;45359;-54
2021/11/29 03:29:07;;;;;;;;;2.00;2.00;;;;;21.66;31.09;100330.00;5079282;28;45218;-53
2021/11/29 03:31:34;;;;;;;;;3.00;3.00;;;;;21.65;31.19;100320.38;5079325;27;45243;-50
2021/11/29 03:34:02;;;;;;;;;2.00;1.00;;;;;21.64;31.23;100326.59;5061074;27;45407;-48
2021/11/29 03:36:31;;;;;;;;;2.25;2.25;;;;;21.63;31.14;100331.03;5078871;28;46014;-48
2021/11/29 03:38:59;;;;;;;;;6.50;3.50;;;;;21.60;31.10;100332.09;5079335;28;45469;-53
2021/11/29 03:41:25;;;;;;;;;4.00;2.75;;;;;21.61;30.86;100344.31;5079541;28;45249;-47
2021/11/29 03:43:51;;;;;;;;;2.00;2.00;;;;;21.60;31.13;100339.16;5078848;28;46201;-50
2021/11/29 03:46:17;;;;;;;;;2.25;2.25;;;;;21.58;31.07;100349.75;5078748;28;45632;-50
2021/11/29 03:48:43;;;;;;;;;3.75;3.75;;;;;21.59;31.26;100351.47;5079031;28;45338;-49
2021/11/29 03:51:09;;;;;;;;;3.00;3.00;;;;;21.56;31.11;100356.94;5079247;28;45811;-53
2021/11/29 03:53:34;;;;;;;;;3.25;3.25;;;;;21.54;30.96;100348.31;5078610;27;45418;-51
2021/11/29 03:56:00;;;;;;;;;4.00;4.00;;;;;21.53;30.93;100365.06;5078643;27;45458;-53
2021/11/29 03:58:26;;;;;;;;;4.50;3.00;;;;;21.51;31.23;100366.94;5079230;28;45454;-54
2021/11/29 04:00:52;;;;;;;;;3.75;2.50;;;;;21.49;31.22;100363.56;5078868;27;45353;-53
2021/11/29 04:03:17;;;;;;;;;2.00;2.00;;;;;21.48;31.29;100369.78;5078490;28;45219;-54
2021/11/29 04:05:43;;;;;;;;;3.75;3.75;;;;;21.45;31.24;100364.72;5078570;28;45352;-56
2021/11/29 04:08:08;;;;;;;;;2.00;2.00;;;;;21.44;31.11;100378.88;5078699;27;45328;-55
2021/11/29 04:10:34;;;;;;;;;2.00;2.00;;;;;21.42;31.17;100372.84;5078886;28;45549;-47
2021/11/29 04:12:59;;;;;;;;;2.00;2.00;;;;;21.42;31.08;100371.03;5078317;27;46073;-54
2021/11/29 04:15:25;;;;;;;;;3.25;3.25;;;;;21.41;31.27;100379.06;5078610;27;45274;-55
2021/11/29 04:17:50;;;;;;;;;3.75;3.00;;;;;21.40;30.90;100382.66;5078634;28;45271;-55
2021/11/29 04:20:16;;;;;;;;;4.00;2.00;;;;;21.37;30.84;100386.34;5078638;28;45271;-56
2021/11/29 04:22:45;;;;;;;;;4.00;4.00;;;;;21.38;30.73;100390.66;5078123;28;45574;-56
2021/11/29 04:25:14;;;;;;;;;4.00;3.00;;;;;21.37;30.88;100398.66;5059644;28;45894;-49
2021/11/29 04:27:41;;;;;;;;;4.00;3.00;;;;;21.35;30.89;100398.78;5078356;28;45434;-48
2021/11/29 04:30:12;;;;;;;;;4.00;3.00;;;;;21.34;30.92;100393.56;5078362;27;45594;-52
2021/11/29 04:32:38;;;;;;;;;3.00;3.00;;;;;21.33;31.31;100399.81;5078172;28;45394;-46
2021/11/29 04:35:04;;;;;;;;;4.00;2.00;;;;;21.30;31.22;100399.06;5078105;28;45719;-56
2021/11/29 04:37:30;;;;;;;;;2.00;2.00;;;;;21.30;31.25;100403.47;5078198;28;45174;-45
2021/11/29 04:39:55;;;;;;;;;3.00;3.00;;;;;21.26;31.26;100392.31;5078306;27;45311;-56
2021/11/29 04:42:21;;;;;;;;;2.00;2.00;;;;;21.25;31.01;100401.16;5077795;27;45813;-55
2021/11/29 04:44:46;;;;;;;;;3.75;3.00;;;;;21.25;31.06;100406.41;5077943;27;45241;-50
2021/11/29 04:47:11;;;;;;;;;2.25;2.25;;;;;21.21;31.19;100410.22;5077992;27;45430;-56
2021/11/29 04:49:37;;;;;;;;;2.00;2.00;;;;;21.21;30.71;100418.13;5078109;28;45370;-53
2021/11/29 04:52:03;;;;;;;;;3.00;3.00;;;;;21.20;31.33;100415.56;5077781;28;45353;-51
2021/11/29 04:54:28;;;;;;;;;2.00;2.00;;;;;21.17;30.84;100419.25;5078063;28;45865;-55
2021/11/29 04:56:54;;;;;;;;;4.00;3.00;;;;;21.15;31.13;100415.88;5077806;27;45308;-52
2021/11/29 04:59:19;;;;;;;;;6.25;3.00;;;;;21.14;31.30;100424.72;5059790;27;45618;-49
2021/11/29 05:01:44;;;;;;;;;2.50;2.50;;;;;21.15;31.23;100431.69;5077547;28;46571;-52
2021/11/29 05:04:09;;;;;;;;;3.00;3.00;;;;;21.19;31.35;100438.47;5077482;28;45391;-50
2021/11/29 05:06:37;;;;;;;;;3.00;2.00;;;;;21.19;31.11;100427.06;5077439;27;45344;-46
2021/11/29 05:09:05;;;;;;;;;1.50;1.25;;;;;21.27;31.23;100435.34;5077870;28;45252;-47
2021/11/29 05:11:31;;;;;;;;;2.00;2.00;;;;;21.29;31.43;100434.28;5077707;27;46513;-49
2021/11/29 05:13:56;;;;;;;;;2.00;2.00;;;;;21.33;31.38;100445.47;5077231;28;45287;-51
2021/11/29 05:16:21;;;;;;;;;2.00;2.00;;;;;21.37;31.30;100454.88;5059272;28;45353;-49
2021/11/29 05:18:46;;;;;;;;;2.00;2.00;;;;;21.41;31.40;100453.72;5077705;28;45433;-46
2021/11/29 05:21:12;;;;;;;;;2.00;2.00;;;;;21.46;31.11;100458.69;5076760;27;45521;-52
2021/11/29 05:23:37;;;;;;;;;2.25;2.25;;;;;21.47;31.51;100465.66;5077251;28;45438;-48
2021/11/29 05:26:03;;;;;;;;;1.00;1.00;;;;;21.54;31.33;100474.00;5077634;27;45491;-49
2021/11/29 05:28:28;;;;;;;;;2.00;2.00;;;;;21.55;31.61;100473.91;5077734;28;45573;-46
2021/11/29 05:30:54;;;;;;;;;1.25;1.25;;;;;21.58;31.21;100478.97;5077066;27;46555;-46
2021/11/29 05:33:19;;;;;;;;;1.00;1.00;;;;;21.60;31.27;100478.94;5058826;28;45362;-47
2021/11/29 05:35:44;;;;;;;;;4.50;2.00;;;;;21.65;31.02;100487.38;5076396;28;45409;-54
2021/11/29 05:38:10;;;;;;;;;2.25;2.00;;;;;21.66;31.26;100506.69;5077455;28;45449;-54
2021/11/29 05:40:35;;;;;;;;;2.00;1.00;;;;;21.69;31.20;100490.66;5075637;28;47102;-46
2021/11/29 05:43:01;;;;;;;;;2.25;2.25;;;;;21.70;30.97;100497.63;5077076;28;45392;-46
2021/11/29 05:45:27;;;;;;;;;1.00;1.00;;;;;21.72;31.23;100504.47;5077104;28;45332;-48
2021/11/29 05:47:52;;;;;;;;;1.25;1.25;;;;;21.74;31.38;100512.31;5077322;28;45481;-49
2021/11/29 05:50:18;;;;;;;;;1.50;1.50;;;;;21.75;31.49;100514.84;5076883;28;46014;-47
2021/11/29 05:52:44;;;;;;;;;1.75;1.00;;;;;21.77;31.10;100526.13;5076826;28;45285;-52
2021/11/29 05:55:11;;;;;;;;;3.00;3.00;;;;;21.79;30.97;100531.28;5076891;28;45226;-50
2021/11/29 05:57:38;;;;;;;;;1.00;1.00;;;;;21.79;30.90;100520.75;5077076;27;45505;-55
2021/11/29 06:00:06;;;;;;;;;2.00;2.00;;;;;21.80;31.04;100529.53;5077069;27;45379;-54
2021/11/29 06:02:32;;;;;;;;;3.75;2.00;;;;;21.78;30.88;100519.03;5076983;28;45850;-57
2021/11/29 06:04:57;;;;;;;;;3.00;2.00;;;;;21.77;30.86;100531.41;5076934;27;45281;-56
2021/11/29 06:07:23;;;;;;;;;3.75;2.00;;;;;21.76;30.89;100534.16;5075597;27;45562;-56
2021/11/29 06:09:48;;;;;;;;;3.00;3.00;;;;;21.73;31.11;100531.72;5076803;28;45365;-55
2021/11/29 06:12:14;;;;;;;;;2.00;2.00;;;;;21.73;30.55;100539.63;5058412;27;46241;-56
2021/11/29 06:14:39;;;;;;;;;2.00;2.00;;;;;21.67;30.98;100543.50;5076791;27;45171;-53
2021/11/29 06:17:04;;;;;;;;;1.00;1.00;;;;;21.69;30.51;100551.31;5077309;28;45277;-55
2021/11/29 06:19:30;;;;;;;;;2.75;2.50;;;;;21.68;30.96;100554.88;5076576;27;46061;-56
2021/11/29 06:21:55;;;;;;;;;1.00;1.00;;;;;21.64;30.91;100558.69;5076642;28;45417;-55
2021/11/29 06:24:20;;;;;;;;;1.25;1.25;;;;;21.64;30.84;100561.31;5076773;27;45767;-53
2021/11/29 06:26:46;;;;;;;;;4.25;2.00;;;;;21.61;30.84;100565.84;5058546;28;45297;-51
2021/11/29 06:29:11;;;;;;;;;2.50;2.50;;;;;21.57;30.56;100569.59;5076838;28;46079;-50
2021/11/29 06:31:38;;;;;;;;;1.00;1.00;;;;;21.54;30.87;100569.81;5058406;28;45427;-49
2021/11/29 06:34:03;;;;;;;;;1.00;1.00;;;;;21.53;30.54;100573.38;5076686;28;45394;-54
2021/11/29 06:36:29;;;;;;;;;1.25;1.25;;;;;21.50;30.59;100584.13;5058573;28;45335;-55
2021/11/29 06:38:56;;;;;;;;;2.00;1.75;;;;;21.51;30.76;100596.34;5076414;28;46182;-54
2021/11/29 06:41:27;;;;;;;;;1.50;1.50;;;;;21.49;30.95;100597.41;5076672;27;45347;-53
2021/11/29 06:43:55;;;;;;;;;1.00;1.00;;;;;21.47;30.78;100605.38;5076643;28;45364;-53
2021/11/29 06:46:21;;;;;;;;;1.75;1.00;;;;;21.45;30.65;100608.13;5077147;28;45337;-53
2021/11/29 06:48:46;;;;;;;;;2.75;2.50;;;;;21.44;31.12;100616.16;5061579;28;47180;-52
2021/11/29 06:51:12;;;;;;;;;2.25;1.00;;;;;21.40;30.76;100619.91;5079899;28;45354;-53
2021/11/29 06:53:40;;;;;;;;;1.00;1.00;;;;;21.40;30.99;100627.81;5061754;27;45566;-50
2021/11/29 06:56:06;;;;;;;;;3.50;2.00;;;;;21.39;31.38;100628.75;5080386;28;45360;-54
2021/11/29 06:58:31;;;;;;;;;1.00;1.00;;;;;21.37;31.13;100628.00;5079589;28;45577;-52
2021/11/29 07:00:57;;;;;;;;;3.00;1.50;;;;;21.36;30.80;100644.75;5079507;27;45477;-55
2021/11/29 07:03:23;;;;;;;;;3.00;1.00;;;;;21.34;31.05;100646.66;5079855;28;45276;-55
2021/11/29 07:05:51;;;;;;;;;2.00;1.00;;;;;21.33;31.13;100651.09;5079481;28;45364;-54
2021/11/29 07:08:17;;;;;;;;;2.00;1.00;;;;;21.33;31.21;100650.25;5079574;27;46660;-54
2021/11/29 07:10:42;;;;;;;;;1.00;1.00;;;;;21.31;31.15;100653.81;5079535;28;45333;-56
2021/11/29 07:13:12;;;;;;;;;1.25;1.25;;;;;21.30;31.35;100665.31;5079745;28;45223;-47
2021/11/29 07:15:39;;;;;;;;;1.00;1.00;;;;;21.28;31.58;100664.53;5080005;28;45355;-54
2021/11/29 07:18:06;;;;;;;;;1.50;1.50;;;;;21.28;30.99;100672.47;5061358;28;47058;-49
2021/11/29 07:20:31;;;;;;;;;2.50;2.50;;;;;21.26;31.53;100671.69;5079448;27;45834;-52
2021/11/29 07:22:57;;;;;;;;;1.00;1.00;;;;;21.26;31.16;100679.59;5061156;27;45452;-53
2021/11/29 07:25:23;;;;;;;;;2.25;1.25;;;;;21.26;31.69;100689.31;5079581;28;45549;-55
2021/11/29 07:27:49;;;;;;;;;1.00;1.00;;;;;21.24;31.39;100689.38;5079262;28;46376;-51
2021/11/29 07:30:18;;;;;;;;;1.50;1.50;;;;;21.24;31.66;100705.19;5079102;27;45347;-55
2021/11/29 07:32:43;;;;;;;;;1.00;1.00;;;;;21.22;31.21;100703.59;5079246;28;45420;-55
2021/11/29 07:35:10;;;;;;;;;1.00;1.00;;;;;21.20;31.16;100702.84;5079642;28;45441;-52
2021/11/29 07:37:36;;;;;;;;;1.25;1.25;;;;;21.19;31.73;100698.50;5079199;28;45359;-55
2021/11/29 07:40:05;;;;;;;;;2.00;2.00;;;;;21.18;31.43;100705.59;5079115;28;45323;-49
2021/11/29 07:42:32;;;;;;;;;0.75;0.75;;;;;21.16;31.68;100712.72;5078880;28;45282;-50
2021/11/29 07:44:57;;;;;;;;;0.00;0.00;;;;;21.13;31.71;100713.78;5079225;28;45338;-51
2021/11/29 07:47:24;;;;;;;;;1.00;1.00;;;;;21.14;31.32;100712.84;5078821;28;46581;-52
2021/11/29 07:49:51;;;;;;;;;2.50;2.00;;;;;21.11;31.69;100712.19;5078823;27;45834;-51
2021/11/29 07:52:16;;;;;;;;;1.75;1.75;;;;;21.10;31.71;100718.38;5078892;28;45331;-51
2021/11/29 07:54:43;;;;;;;;;2.00;2.00;;;;;21.09;31.67;100717.50;5078930;27;45453;-49
2021/11/29 07:57:10;;;;;;;;;0.00;0.00;;;;;21.07;31.64;100713.28;5079067;28;45597;-48
2021/11/29 07:59:36;;;;;;;;;2.75;2.00;;;;;21.06;31.33;100722.97;5078474;28;45763;-54
2021/11/29 08:02:01;;;;;;;;;2.00;2.00;;;;;21.05;31.79;100720.44;5078962;28;45284;-47
2021/11/29 08:04:27;;;;;;;;;1.75;1.75;;;;;21.03;31.61;100717.91;5078838;27;45402;-46
2021/11/29 08:06:53;;;;;;;;;1.50;1.50;;;;;21.02;31.62;100724.09;5078351;27;45562;-50
2021/11/29 08:09:18;;;;;;;;;2.00;1.25;;;;;21.01;31.59;100730.31;5078574;27;45536;-48
2021/11/29 08:11:44;;;;;;;;;2.00;2.00;;;;;21.01;31.54;100739.03;5078668;28;45323;-53
2021/11/29 08:14:09;;;;;;;;;1.25;1.25;;;;;20.99;31.73;100740.94;5078997;27;45453;-53
2021/11/29 08:16:34;;;;;;;;;1.25;1.25;;;;;20.98;31.73;100747.16;5078453;28;45480;-52
2021/11/29 08:19:00;;;;;;;;;2.25;1.00;;;;;20.98;31.53;100760.31;5078383;28;45376;-50
2021/11/29 08:21:25;;;;;;;;;3.00;2.25;;;;;20.96;31.67;100764.84;5078376;28;45359;-54
2021/11/29 08:23:50;;;;;;;;;3.25;1.25;;;;;20.95;31.62;100772.81;5078668;28;45492;-51
2021/11/29 08:26:16;;;;;;;;;3.00;1.25;;;;;20.93;31.63;100767.63;5078161;27;46742;-49
2021/11/29 08:28:41;;;;;;;;;1.25;1.00;;;;;20.94;31.51;100769.34;5078376;27;45415;-53
2021/11/29 08:31:06;;;;;;;;;2.50;1.25;;;;;20.92;31.64;100768.56;5078259;27;45392;-51
2021/11/29 08:33:32;;;;;;;;;3.00;2.00;;;;;20.89;31.59;100771.38;5078438;28;45419;-52
2021/11/29 08:35:57;;;;;;;;;0.75;0.75;;;;;20.90;31.34;100775.72;5078245;28;45247;-49
2021/11/29 08:38:23;;;;;;;;;2.00;2.00;;;;;20.88;31.40;100787.28;5078286;28;45356;-52
2021/11/29 08:40:51;;;;;;;;;1.75;1.75;;;;;20.87;31.49;100777.69;5078141;28;45497;-49
2021/11/29 08:43:18;;;;;;;;;2.00;2.00;;;;;20.84;30.87;100776.91;5078258;28;45408;-52
2021/11/29 08:45:47;;;;;;;;;4.25;3.50;;;;;20.78;30.91;100787.81;5077860;28;46299;-52
2021/11/29 08:48:13;;;;;;;;;4.00;3.00;;;;;20.72;30.40;100793.41;5078072;27;45718;-51
2021/11/29 08:50:42;;;;;;;;;5.25;4.00;;;;;20.65;30.49;100792.91;5078444;28;45197;-54
2021/11/29 08:53:10;;;;;;;;;3.00;3.00;;;;;20.61;30.13;100795.81;5078279;27;45601;-53
2021/11/29 08:55:36;;;;;;;;;4.50;3.25;;;;;20.57;29.95;100787.22;5077812;27;45370;-51
2021/11/29 08:58:04;;;;;;;;;4.00;4.00;;;;;20.50;30.31;100785.88;5077787;27;45324;-50
2021/11/29 09:00:32;;;;;;;;;4.00;4.00;;;;;20.46;30.18;100786.97;5077827;27;45414;-51
2021/11/29 09:02:59;;;;;;;;;4.50;3.75;;;;;20.42;30.53;100790.72;5077743;27;45410;-48
2021/11/29 09:05:25;;;;;;;;;2.00;2.00;;;;;20.41;30.23;100795.13;5077251;27;46654;-55
2021/11/29 09:07:51;;;;;;;;;7.75;3.00;;;;;20.43;30.42;100795.03;5077312;27;45339;-48
2021/11/29 09:10:17;;;;;;;;;3.75;3.75;;;;;20.39;30.35;100802.28;5076493;28;45351;-52
2021/11/29 09:12:44;;;;;;;;;4.00;4.00;;;;;20.41;30.55;100802.19;5078014;28;45546;-50
2021/11/29 09:15:15;;;;;;;;;3.25;2.50;;;;;20.39;30.19;100804.91;5078568;28;45414;-51
2021/11/29 09:17:42;;;;;;;;;5.00;4.00;;;;;20.37;30.67;100810.22;5079033;27;45975;-49
2021/11/29 09:20:19;;;;;;;;;5.00;3.25;;;;;20.37;30.28;100812.88;5078718;27;45231;-47
2021/11/29 09:22:55;;;;;;;;;1.00;1.00;;;;;20.36;30.09;100821.69;5060754;28;45772;-50
2021/11/29 09:25:21;;;;;;;;;4.25;4.00;;;;;20.34;29.98;100820.09;5077967;28;46170;-47
2021/11/29 09:27:47;;;;;;;;;5.75;4.00;;;;;20.35;29.90;100827.88;5077223;28;45788;-47
2021/11/29 09:30:15;;;;;;;;;4.00;3.00;;;;;20.34;29.98;100828.81;5077563;27;45439;-48
2021/11/29 09:32:41;;;;;;;;;2.50;2.00;;;;;20.31;30.36;100826.38;5077847;28;45569;-50
2021/11/29 09:35:13;;;;;;;;;3.00;3.00;;;;;20.32;30.42;100838.59;5058720;28;47123;-55
2021/11/29 09:37:40;;;;;;;;;2.75;2.75;;;;;20.29;30.14;100838.75;5077025;28;45754;-52
2021/11/29 09:40:08;;;;;;;;;3.50;2.50;;;;;20.22;30.14;100832.16;5077303;28;45549;-46
2021/11/29 09:42:36;;;;;;;;;1.00;1.00;;;;;20.28;30.46;100842.31;5077375;28;45239;-48
2021/11/29 09:45:03;;;;;;;;;2.00;2.00;;;;;20.31;30.68;100846.56;5079689;27;45453;-51
2021/11/29 09:47:29;;;;;;;;;2.00;2.00;;;;;20.29;30.65;100844.03;5080407;27;45938;-52
2021/11/29 09:49:55;;;;;;;;;5.00;3.25;;;;;20.32;30.88;100854.41;5066827;27;45795;-45
2021/11/29 09:52:22;;;;;;;;;2.25;2.25;;;;;20.34;30.45;100863.03;5079246;27;45456;-46
2021/11/29 09:54:49;;;;;;;;;2.00;2.00;;;;;20.36;30.56;100869.06;5097179;27;45540;-53
2021/11/29 09:57:15;;;;;;;;;1.00;1.00;;;;;20.35;30.82;100872.63;5079333;27;45281;-52
2021/11/29 09:59:40;;;;;;;;;3.00;1.75;;;;;20.37;31.15;100883.09;5097387;27;45295;-48
2021/11/29 10:02:12;;;;;;;;;3.25;1.75;;;;;20.37;31.00;100868.16;5097148;27;45636;-46
2021/11/29 10:04:42;;;;;;;;;4.00;2.00;;;;;20.37;31.42;100876.03;5082765;27;45445;-48
2021/11/29 10:07:08;;;;;;;;;1.50;1.50;;;;;20.37;30.93;100862.88;5058128;28;45864;-45
2021/11/29 10:09:36;;;;;;;;;0.75;0.00;;;;;20.41;31.27;100870.63;5081179;27;45360;-46
2021/11/29 10:12:11;;;;;;;;;2.25;2.00;;;;;20.45;31.10;100869.53;5077335;27;45799;-51
2021/11/29 10:14:39;;;;;;;;;1.00;1.00;;;;;20.48;30.90;100875.47;5076782;27;45702;-50
2021/11/29 10:17:04;;;;;;;;;3.75;2.00;;;;;20.52;30.91;100873.50;5084003;27;45272;-46
2021/11/29 10:19:37;;;;;;;;;1.00;1.00;;;;;20.58;31.34;100875.81;5086566;27;45358;-47
2021/11/29 10:22:16;;;;;;;;;1.00;1.00;;;;;20.60;31.42;100871.31;5100743;27;45340;-49
2021/11/29 10:24:43;;;;;;;;;1.25;1.00;;;;;20.70;31.52;100876.91;5103765;27;46383;-52
2021/11/29 10:27:08;;;;;;;;;1.00;1.00;;;;;20.74;31.46;100877.59;5103760;27;45526;-48
2021/11/29 10:29:33;;;;;;;;;2.00;2.00;;;;;20.82;31.30;100883.31;5103943;27;45755;-49
2021/11/29 10:31:59;;;;;;;;;1.00;1.00;;;;;20.85;31.20;100881.34;5102429;27;45401;-46
2021/11/29 10:34:31;;;;;;;;;1.00;1.00;;;;;20.89;31.63;100879.38;5082921;28;46498;-47
2021/11/29 10:37:12;;;;;;;;;3.00;1.50;;;;;20.95;31.00;100886.09;5083203;28;45474;-48
2021/11/29 10:39:44;;;;;;;;;2.00;1.25;;;;;20.99;31.14;100885.88;5083119;28;45300;-44
2021/11/29 10:42:13;;;;;;;;;1.50;1.50;;;;;21.04;31.23;100887.38;5083464;28;45339;-51
2021/11/29 10:44:42;;;;;;;;;1.00;1.00;;;;;21.06;31.38;100886.34;5064916;28;46614;-49
2021/11/29 10:47:10;;;;;;;;;1.50;1.00;;;;;21.09;31.08;100880.06;5083191;27;45285;-53
2021/11/29 10:49:40;;;;;;;;;3.50;2.00;;;;;21.15;31.47;100892.88;5083289;28;45398;-51
2021/11/29 10:52:08;;;;;;;;;2.25;2.00;;;;;21.17;31.29;100886.56;5083265;27;45350;-52
2021/11/29 10:54:35;;;;;;;;;2.00;2.00;;;;;21.21;30.81;100883.78;5082805;27;47012;-51
2021/11/29 10:57:02;;;;;;;;;3.50;1.50;;;;;21.24;30.93;100892.34;5064721;28;45320;-50
2021/11/29 10:59:30;;;;;;;;;2.50;2.00;;;;;21.26;30.88;100898.38;5082973;27;45324;-51
2021/11/29 11:01:59;;;;;;;;;4.75;2.50;;;;;21.28;30.46;100896.53;5083196;28;45414;-49
2021/11/29 11:04:27;;;;;;;;;2.00;2.00;;;;;21.29;30.53;100900.84;5082836;28;46268;-48
2021/11/29 11:06:58;;;;;;;;;3.25;2.75;;;;;21.30;31.11;100906.97;5082723;27;45273;-51
2021/11/29 11:09:28;;;;;;;;;2.75;2.50;;;;;21.28;30.37;100899.16;5083120;27;45429;-54
2021/11/29 11:11:55;;;;;;;;;2.00;1.00;;;;;21.27;30.44;100896.63;5064531;28;45936;-47
2021/11/29 11:14:26;;;;;;;;;4.25;2.00;;;;;21.32;30.83;100905.09;5082546;28;46423;-46
2021/11/29 11:16:57;;;;;;;;;2.00;1.25;;;;;21.29;31.39;100903.50;5063924;28;45381;-52
2021/11/29 11:19:25;;;;;;;;;2.25;2.25;;;;;21.35;31.55;100910.19;5082794;28;45513;-53
2021/11/29 11:21:52;;;;;;;;;1.50;1.50;;;;;21.34;31.54;100905.00;5083321;27;45753;-48